Time;durP1;ratioP1;P1;durP2;ratioP2;P2;SDS_P1;SDS_P2;PMS_P1;PMS_P2;Temp;Humidity;BMP_temperature;BMP_pressure;BME280_temperature;BME280_humidity;BME280_pressure;Samples;Min_cycle;Max_cycle;Signal;HPM_P1;HPM_P2
2022/03/30 00:00:06;;;;;;;18.70;16.67;;;13.20;72.90;;;;;;5015003;28;20158;-79
2022/03/30 00:02:37;;;;;;;24.30;20.10;;;13.20;72.90;;;;;;5015859;28;20280;-79
2022/03/30 00:05:03;;;;;;;24.63;19.20;;;13.20;73.20;;;;;;5032791;28;20174;-79
2022/03/30 00:07:31;;;;;;;25.17;19.25;;;13.20;73.50;;;;;;5018942;28;20681;-79
2022/03/30 00:10:04;;;;;;;22.48;19.33;;;13.20;73.30;;;;;;5032449;28;20653;-79
2022/03/30 00:12:30;;;;;;;21.67;18.63;;;13.10;73.60;;;;;;5032537;28;20635;-79
2022/03/30 00:14:57;;;;;;;22.65;19.40;;;13.10;73.50;;;;;;5032510;28;20544;-79
2022/03/30 00:17:23;;;;;;;24.17;18.80;;;13.10;73.90;;;;;;5032053;28;20186;-79
2022/03/30 00:19:49;;;;;;;25.70;20.35;;;13.10;74.00;;;;;;5014605;28;20176;-79
2022/03/30 00:22:15;;;;;;;23.60;19.03;;;13.10;74.90;;;;;;5014749;28;20170;-79
2022/03/30 00:24:44;;;;;;;22.50;18.73;;;13.10;74.50;;;;;;5031635;28;20267;-79
2022/03/30 00:27:13;;;;;;;24.95;18.15;;;13.10;74.60;;;;;;5031753;28;20267;-79
2022/03/30 00:29:39;;;;;;;25.08;21.80;;;13.10;74.60;;;;;;5014505;28;20204;-79
2022/03/30 00:32:05;;;;;;;24.63;19.17;;;13.10;75.50;;;;;;5014847;28;20170;-79
2022/03/30 00:34:31;;;;;;;24.15;21.55;;;13.00;75.10;;;;;;5032010;28;20166;-79
2022/03/30 00:36:57;;;;;;;23.33;18.70;;;13.00;75.40;;;;;;5032040;28;20664;-79
2022/03/30 00:39:22;;;;;;;24.00;18.60;;;13.00;75.20;;;;;;5014071;28;20538;-79
2022/03/30 00:41:48;;;;;;;22.17;18.30;;;13.00;75.20;;;;;;5031945;28;20165;-79
2022/03/30 00:44:15;;;;;;;23.40;18.10;;;13.00;75.10;;;;;;5031170;22;20166;-80
2022/03/30 00:46:44;;;;;;;25.27;20.73;;;13.00;75.20;;;;;;5058027;28;20182;-80
2022/03/30 00:49:11;;;;;;;23.73;17.08;;;13.00;75.30;;;;;;5037004;28;20224;-80
2022/03/30 00:51:37;;;;;;;26.95;21.17;;;13.00;75.10;;;;;;5040690;28;20529;-80
2022/03/30 00:54:03;;;;;;;21.83;18.73;;;13.00;75.10;;;;;;5049409;28;20218;-79
2022/03/30 00:56:31;;;;;;;21.00;17.20;;;13.00;75.00;;;;;;5041128;28;20579;-80
2022/03/30 00:58:57;;;;;;;23.60;17.55;;;12.90;75.10;;;;;;5031744;28;21150;-80
2022/03/30 01:01:23;;;;;;;18.57;16.20;;;12.90;75.10;;;;;;5031796;28;20193;-80
2022/03/30 01:03:49;;;;;;;21.05;17.90;;;12.90;75.10;;;;;;5031971;28;20197;-80
2022/03/30 01:06:14;;;;;;;26.17;18.90;;;12.90;75.40;;;;;;5037664;28;20197;-79
2022/03/30 01:08:41;;;;;;;22.30;18.93;;;12.80;75.30;;;;;;5031792;28;20197;-79
2022/03/30 01:11:09;;;;;;;22.40;18.98;;;12.80;75.60;;;;;;5030327;28;20170;-79
2022/03/30 01:13:36;;;;;;;23.33;17.20;;;12.80;75.60;;;;;;5031731;28;20173;-79
2022/03/30 01:16:02;;;;;;;21.63;17.50;;;12.80;75.70;;;;;;5031381;28;20592;-79
2022/03/30 01:18:28;;;;;;;19.02;15.85;;;12.80;76.00;;;;;;5030032;28;20697;-79
2022/03/30 01:20:54;;;;;;;18.00;15.52;;;12.70;75.80;;;;;;5030309;28;20174;-80
2022/03/30 01:23:19;;;;;;;18.47;16.50;;;12.80;77.00;;;;;;5031638;28;20208;-80
2022/03/30 01:25:45;;;;;;;18.30;16.30;;;12.80;76.50;;;;;;5030130;28;20243;-80
2022/03/30 01:28:12;;;;;;;20.37;16.63;;;12.80;76.60;;;;;;5029980;28;20631;-80
2022/03/30 01:33:22;;;;;;;21.63;17.55;;;12.70;76.80;;;;;;5031752;28;20180;-80
2022/03/30 01:35:50;;;;;;;24.80;17.98;;;12.70;76.70;;;;;;5030170;28;20280;-80
2022/03/30 01:38:15;;;;;;;24.40;21.80;;;12.70;76.70;;;;;;5034923;28;20717;-80
2022/03/30 01:40:41;;;;;;;19.63;16.80;;;12.70;77.00;;;;;;5035467;28;20166;-80
2022/03/30 01:43:07;;;;;;;20.97;18.00;;;12.70;76.80;;;;;;5038761;28;20173;-80
2022/03/30 01:45:33;;;;;;;24.17;18.40;;;12.60;76.90;;;;;;5034138;28;20212;-80
2022/03/30 01:48:01;;;;;;;20.95;16.73;;;12.60;77.50;;;;;;5035166;28;20618;-79
2022/03/30 01:50:29;;;;;;;21.97;18.97;;;12.60;77.80;;;;;;5035358;28;20197;-79
2022/03/30 01:52:55;;;;;;;27.90;18.45;;;12.50;78.40;;;;;;5034866;28;20188;-80
2022/03/30 01:55:21;;;;;;;26.98;20.08;;;12.50;78.30;;;;;;5035056;28;20232;-80
2022/03/30 01:57:47;;;;;;;19.37;16.60;;;12.50;78.70;;;;;;5034457;28;20233;-80
2022/03/30 02:00:15;;;;;;;22.30;16.80;;;12.50;79.10;;;;;;5034929;28;20590;-79
2022/03/30 02:02:41;;;;;;;21.77;17.60;;;12.50;79.30;;;;;;5034735;28;20905;-80
2022/03/30 02:05:08;;;;;;;20.23;18.00;;;12.40;80.10;;;;;;5034916;28;20272;-80
2022/03/30 02:07:36;;;;;;;23.77;18.75;;;12.40;79.60;;;;;;5034428;28;20191;-80
2022/03/30 02:10:04;;;;;;;24.75;19.65;;;12.40;80.00;;;;;;5034573;28;20170;-79
2022/03/30 02:12:30;;;;;;;25.95;18.40;;;12.40;80.70;;;;;;5034747;28;20174;-80
2022/03/30 02:14:56;;;;;;;25.00;20.37;;;12.30;80.80;;;;;;5034240;28;20192;-79
2022/03/30 02:17:24;;;;;;;21.87;17.67;;;12.30;81.10;;;;;;5024407;28;20588;-79
2022/03/30 02:19:50;;;;;;;23.60;19.10;;;12.30;81.20;;;;;;5037701;28;20199;-79
2022/03/30 02:22:16;;;;;;;22.38;18.85;;;12.20;81.50;;;;;;5033889;28;20170;-80
2022/03/30 02:24:41;;;;;;;22.73;18.63;;;12.20;81.80;;;;;;5034459;28;20599;-79
2022/03/30 02:27:07;;;;;;;19.43;17.47;;;12.20;82.10;;;;;;5034217;28;20596;-80
2022/03/30 02:29:35;;;;;;;21.80;17.67;;;12.20;82.50;;;;;;5034420;28;20587;-80
2022/03/30 02:32:01;;;;;;;21.58;19.27;;;12.20;83.00;;;;;;5034450;28;20192;-80
2022/03/30 02:34:27;;;;;;;21.98;18.90;;;12.20;83.20;;;;;;5016727;28;20197;-80
2022/03/30 02:36:53;;;;;;;23.65;19.20;;;12.20;83.40;;;;;;5034548;28;20552;-79
2022/03/30 02:39:19;;;;;;;22.20;17.60;;;12.10;83.40;;;;;;5034138;28;20200;-79
2022/03/30 02:41:46;;;;;;;20.92;17.13;;;12.10;83.70;;;;;;5034204;28;20176;-80
2022/03/30 02:44:13;;;;;;;21.92;18.55;;;12.10;83.90;;;;;;5034136;28;20531;-79
2022/03/30 02:46:40;;;;;;;21.05;18.55;;;12.10;85.30;;;;;;5034154;28;20350;-80
2022/03/30 02:49:05;;;;;;;24.45;19.33;;;12.10;84.70;;;;;;5033147;28;20251;-80
2022/03/30 02:51:31;;;;;;;21.77;19.00;;;12.10;84.90;;;;;;5034027;28;20625;-80
2022/03/30 02:53:57;;;;;;;23.90;18.07;;;12.10;85.10;;;;;;5034453;28;20539;-80
2022/03/30 02:56:23;;;;;;;24.87;18.23;;;12.10;85.50;;;;;;5036365;28;20170;-81
2022/03/30 02:58:49;;;;;;;24.08;17.30;;;12.10;85.10;;;;;;5036792;28;20702;-79
2022/03/30 03:01:18;;;;;;;20.03;17.90;;;12.00;84.70;;;;;;5033966;28;20182;-79
2022/03/30 03:03:44;;;;;;;22.40;17.02;;;12.00;85.90;;;;;;5032677;28;20600;-79
2022/03/30 03:06:10;;;;;;;22.63;17.20;;;12.00;85.00;;;;;;5015849;28;20225;-79
2022/03/30 03:08:38;;;;;;;23.73;16.92;;;12.00;84.80;;;;;;5016132;28;20205;-79
2022/03/30 03:11:04;;;;;;;24.58;19.35;;;11.90;84.80;;;;;;5015731;28;20589;-79
2022/03/30 03:13:30;;;;;;;23.80;18.27;;;11.90;85.80;;;;;;5015999;28;20265;-79
2022/03/30 03:15:56;;;;;;;24.43;18.57;;;11.90;85.50;;;;;;5033471;28;20944;-79
2022/03/30 03:18:22;;;;;;;21.30;17.80;;;11.90;86.60;;;;;;5033098;28;20987;-79
2022/03/30 03:20:49;;;;;;;24.57;19.63;;;11.80;87.30;;;;;;5033355;28;20200;-80
2022/03/30 03:23:16;;;;;;;24.98;19.33;;;11.80;86.60;;;;;;5033474;28;20541;-79
2022/03/30 03:25:44;;;;;;;20.98;18.60;;;11.80;87.00;;;;;;5033358;28;20247;-79
2022/03/30 03:28:11;;;;;;;24.15;19.55;;;11.80;87.10;;;;;;5033118;28;20228;-79
2022/03/30 03:30:38;;;;;;;22.13;19.35;;;11.80;87.20;;;;;;5033288;28;20552;-79
2022/03/30 03:33:05;;;;;;;22.88;19.15;;;11.80;88.10;;;;;;5032350;28;20566;-79
2022/03/30 03:35:31;;;;;;;17.55;15.00;;;11.90;87.50;;;;;;5037899;28;20322;-79
2022/03/30 03:37:58;;;;;;;22.88;18.13;;;11.90;87.60;;;;;;5033058;28;20236;-79
2022/03/30 03:40:24;;;;;;;24.05;18.98;;;11.90;87.70;;;;;;5033125;28;20173;-79
2022/03/30 03:42:50;;;;;;;20.52;17.25;;;11.90;87.80;;;;;;5033153;28;20265;-78
2022/03/30 03:45:17;;;;;;;24.73;19.10;;;11.90;87.80;;;;;;5032992;28;20288;-79
2022/03/30 03:47:43;;;;;;;24.02;18.73;;;12.00;88.00;;;;;;5032703;28;20162;-79
2022/03/30 03:50:10;;;;;;;22.80;17.33;;;12.00;88.20;;;;;;5032904;28;20227;-79
2022/03/30 03:52:36;;;;;;;23.17;17.95;;;12.00;88.30;;;;;;5015314;28;20648;-79
2022/03/30 03:55:03;;;;;;;23.73;19.15;;;12.00;88.40;;;;;;5032733;28;20204;-79
2022/03/30 03:57:31;;;;;;;21.20;18.75;;;12.00;88.50;;;;;;5032665;28;20323;-79
2022/03/30 03:59:57;;;;;;;20.58;17.58;;;12.00;88.70;;;;;;5032882;28;20258;-79
2022/03/30 04:02:23;;;;;;;21.13;18.27;;;12.00;88.90;;;;;;5041628;28;20641;-79
2022/03/30 04:04:49;;;;;;;21.07;18.23;;;12.00;89.10;;;;;;5036455;28;20615;-80
2022/03/30 04:07:15;;;;;;;19.60;17.47;;;12.00;89.30;;;;;;5053070;28;20571;-79
2022/03/30 04:09:40;;;;;;;23.77;18.17;;;12.00;89.30;;;;;;5052845;28;20252;-79
2022/03/30 04:12:07;;;;;;;24.30;17.90;;;12.00;89.50;;;;;;5057518;28;20168;-79
2022/03/30 04:14:33;;;;;;;20.63;16.90;;;12.00;89.70;;;;;;5051179;28;20224;-79
2022/03/30 04:16:59;;;;;;;22.80;18.40;;;11.90;89.60;;;;;;5052458;28;20249;-80
2022/03/30 04:19:25;;;;;;;30.70;17.87;;;11.90;89.90;;;;;;5051929;28;20629;-79
2022/03/30 04:21:51;;;;;;;21.92;19.60;;;11.90;90.00;;;;;;5052294;28;20578;-79
2022/03/30 04:24:17;;;;;;;27.10;20.45;;;11.80;90.00;;;;;;5052304;28;20169;-80
2022/03/30 04:26:43;;;;;;;23.37;17.10;;;11.70;90.10;;;;;;5052299;28;20215;-78
2022/03/30 04:29:08;;;;;;;24.63;19.83;;;11.70;90.20;;;;;;5052142;28;20252;-80
2022/03/30 04:31:34;;;;;;;26.87;20.57;;;11.70;90.70;;;;;;5052000;28;20208;-79
2022/03/30 04:34:00;;;;;;;23.17;19.17;;;11.60;90.50;;;;;;5052120;28;20165;-79
2022/03/30 04:36:27;;;;;;;25.65;19.52;;;11.60;90.60;;;;;;5052030;28;20574;-79
2022/03/30 04:38:54;;;;;;;23.27;19.53;;;11.50;90.60;;;;;;5050605;28;20200;-78
2022/03/30 04:41:20;;;;;;;23.63;19.70;;;11.50;90.80;;;;;;5051998;28;20560;-79
2022/03/30 04:43:46;;;;;;;21.83;17.25;;;11.50;91.00;;;;;;5052453;28;20203;-79
2022/03/30 04:46:13;;;;;;;33.23;21.97;;;11.50;91.00;;;;;;5051863;28;20193;-79
2022/03/30 04:48:39;;;;;;;20.30;17.45;;;11.40;91.10;;;;;;5059790;28;20583;-79
2022/03/30 04:51:05;;;;;;;21.98;16.85;;;11.40;91.20;;;;;;5050818;28;20176;-80
2022/03/30 04:53:31;;;;;;;26.55;19.35;;;11.40;91.40;;;;;;5050819;28;20683;-80
2022/03/30 04:55:57;;;;;;;30.00;18.48;;;11.40;91.40;;;;;;5051758;28;20188;-79
2022/03/30 04:58:23;;;;;;;26.70;17.70;;;11.40;91.50;;;;;;5050158;28;20205;-80
2022/03/30 05:00:49;;;;;;;28.60;21.73;;;11.40;91.60;;;;;;5051650;28;20583;-80
2022/03/30 05:03:15;;;;;;;24.60;20.13;;;11.40;91.80;;;;;;5051471;28;20173;-77
2022/03/30 05:05:41;;;;;;;31.37;22.57;;;11.40;91.80;;;;;;5051565;28;20196;-80
2022/03/30 05:08:08;;;;;;;25.88;20.35;;;11.40;92.00;;;;;;5051158;28;20572;-80
2022/03/30 05:10:34;;;;;;;25.48;20.08;;;11.30;92.00;;;;;;5051339;28;20180;-80
2022/03/30 05:13:00;;;;;;;22.83;18.93;;;11.30;92.10;;;;;;5051067;28;20255;-80
2022/03/30 05:15:28;;;;;;;22.60;19.20;;;11.30;92.20;;;;;;5050311;28;20200;-81
2022/03/30 05:17:55;;;;;;;30.08;21.45;;;11.30;92.30;;;;;;5051065;28;20196;-80
2022/03/30 05:20:25;;;;;;;23.58;18.23;;;11.30;92.40;;;;;;5051522;28;20263;-80
2022/03/30 05:22:51;;;;;;;25.48;20.13;;;11.30;92.50;;;;;;5051447;28;20239;-79
2022/03/30 05:25:19;;;;;;;22.50;18.10;;;11.30;92.50;;;;;;5051598;28;20660;-80
2022/03/30 05:27:45;;;;;;;30.17;21.30;;;11.30;92.60;;;;;;5051180;28;20563;-80
2022/03/30 05:30:12;;;;;;;26.37;20.57;;;11.30;92.70;;;;;;5051268;28;20169;-79
2022/03/30 05:32:38;;;;;;;23.70;20.58;;;11.30;92.70;;;;;;5051328;28;20530;-79
2022/03/30 05:35:05;;;;;;;24.83;18.55;;;11.30;92.80;;;;;;5049997;28;20196;-79
2022/03/30 05:37:32;;;;;;;23.67;19.30;;;11.30;92.80;;;;;;5049821;28;20169;-79
2022/03/30 05:39:58;;;;;;;32.88;18.50;;;11.30;92.90;;;;;;5050006;28;20176;-79
2022/03/30 05:42:23;;;;;;;22.70;19.30;;;11.30;92.90;;;;;;5051264;28;20161;-79
2022/03/30 05:44:50;;;;;;;26.63;20.67;;;11.20;92.90;;;;;;5049806;28;20706;-79
2022/03/30 05:47:17;;;;;;;28.58;20.05;;;11.20;93.00;;;;;;5051101;28;21244;-79
2022/03/30 05:49:43;;;;;;;19.88;15.70;;;11.20;93.00;;;;;;5051289;28;20173;-79
2022/03/30 05:52:09;;;;;;;36.43;20.60;;;11.20;93.10;;;;;;5051259;28;20192;-79
2022/03/30 05:54:35;;;;;;;26.30;19.03;;;11.20;93.20;;;;;;5038204;28;20196;-79
2022/03/30 05:57:02;;;;;;;22.50;19.02;;;11.30;93.30;;;;;;5032254;28;20177;-78
2022/03/30 05:59:45;;;;;;;23.02;19.58;;;11.30;93.30;;;;;;5031669;28;20196;-78
2022/03/30 06:02:13;;;;;;;22.60;18.58;;;11.20;93.40;;;;;;5036384;28;20180;-79
2022/03/30 06:04:41;;;;;;;25.10;18.98;;;11.30;93.40;;;;;;5030986;28;20190;-78
2022/03/30 06:07:07;;;;;;;22.83;17.52;;;11.30;93.40;;;;;;5024417;28;20174;-78
2022/03/30 06:09:33;;;;;;;25.70;20.43;;;11.30;93.40;;;;;;5029352;28;20174;-77
2022/03/30 06:12:04;;;;;;;24.02;19.38;;;11.30;93.50;;;;;;5030001;28;20588;-77
2022/03/30 06:14:31;;;;;;;25.08;19.63;;;11.30;93.60;;;;;;5030573;28;20193;-77
2022/03/30 06:16:57;;;;;;;22.50;20.02;;;11.30;93.60;;;;;;5030614;28;20249;-77
2022/03/30 06:19:24;;;;;;;25.15;20.25;;;11.30;93.60;;;;;;5029884;28;20236;-77
2022/03/30 06:21:50;;;;;;;27.90;20.05;;;11.40;93.70;;;;;;5030627;28;20165;-78
2022/03/30 06:24:16;;;;;;;21.47;18.27;;;11.40;93.70;;;;;;5032584;28;20219;-77
2022/03/30 06:26:43;;;;;;;18.60;16.60;;;11.40;93.60;;;;;;5033079;28;21325;-78
2022/03/30 06:29:09;;;;;;;23.98;19.40;;;11.50;93.70;;;;;;5033298;28;20638;-78
2022/03/30 06:31:35;;;;;;;23.90;19.33;;;11.50;93.60;;;;;;5034299;28;20181;-78
2022/03/30 06:34:02;;;;;;;21.98;18.95;;;11.50;93.60;;;;;;5033754;28;20599;-78
2022/03/30 06:36:29;;;;;;;22.27;17.70;;;11.50;93.60;;;;;;5032700;28;20235;-79
2022/03/30 06:38:56;;;;;;;20.27;18.08;;;11.50;93.60;;;;;;5038272;28;20661;-78
2022/03/30 06:41:24;;;;;;;20.05;17.30;;;11.50;93.60;;;;;;5033568;28;20181;-78
2022/03/30 06:43:50;;;;;;;25.38;19.50;;;11.60;93.80;;;;;;5026004;28;20227;-77
2022/03/30 06:46:18;;;;;;;24.80;20.17;;;11.60;93.90;;;;;;5033537;28;20276;-77
2022/03/30 06:48:45;;;;;;;24.52;16.75;;;11.80;94.20;;;;;;5033318;28;20162;-77
2022/03/30 06:51:13;;;;;;;21.10;18.10;;;11.90;94.30;;;;;;5031201;28;20653;-77
2022/03/30 06:53:39;;;;;;;27.75;20.38;;;12.10;94.40;;;;;;5032178;28;20580;-78
2022/03/30 06:56:04;;;;;;;25.83;19.37;;;12.20;94.40;;;;;;5033475;28;20186;-78
2022/03/30 06:58:30;;;;;;;22.53;18.00;;;12.30;94.30;;;;;;5033146;28;20618;-78
2022/03/30 07:00:59;;;;;;;28.77;21.20;;;12.50;94.30;;;;;;5032953;28;20620;-77
2022/03/30 07:03:28;;;;;;;25.17;21.15;;;12.60;94.20;;;;;;5033635;28;20162;-78
2022/03/30 07:05:57;;;;;;;27.13;21.10;;;12.70;94.20;;;;;;5033230;28;20203;-78
2022/03/30 07:11:08;;;;;;;27.25;20.98;;;13.00;94.20;;;;;;5030981;28;20337;-78
2022/03/30 07:13:34;;;;;;;25.57;18.40;;;13.20;94.20;;;;;;5031559;28;20193;-78
2022/03/30 07:15:59;;;;;;;25.70;22.20;;;13.30;94.10;;;;;;5038574;28;20615;-78
2022/03/30 07:18:26;;;;;;;26.23;22.37;;;13.50;94.00;;;;;;5033456;28;21560;-78
2022/03/30 07:20:52;;;;;;;24.63;20.33;;;13.70;93.90;;;;;;5032713;28;20243;-78
2022/03/30 07:23:18;;;;;;;25.43;21.10;;;13.80;93.70;;;;;;5032898;28;20170;-78
2022/03/30 07:25:44;;;;;;;19.50;17.08;;;13.90;93.50;;;;;;5031647;28;20189;-79
2022/03/30 07:28:11;;;;;;;30.40;20.37;;;14.10;93.40;;;;;;5032496;28;20269;-78
2022/03/30 07:30:37;;;;;;;25.25;21.65;;;14.20;93.20;;;;;;5032367;28;20580;-77
2022/03/30 07:33:03;;;;;;;24.52;19.77;;;14.30;93.10;;;;;;5032517;28;20174;-78
2022/03/30 07:35:32;;;;;;;25.08;20.10;;;14.50;93.00;;;;;;5032415;28;20205;-78
2022/03/30 07:37:59;;;;;;;21.77;18.48;;;14.70;92.90;;;;;;5032843;28;20936;-79
2022/03/30 07:40:25;;;;;;;22.90;19.65;;;14.80;92.50;;;;;;5033270;28;20166;-78
2022/03/30 07:42:52;;;;;;;22.52;18.42;;;14.90;92.20;;;;;;5032813;28;20177;-79
2022/03/30 07:45:19;;;;;;;26.53;21.10;;;14.90;92.00;;;;;;5038554;28;20207;-79
2022/03/30 07:47:45;;;;;;;24.00;20.67;;;15.10;91.80;;;;;;5040335;28;20623;-79
2022/03/30 07:50:12;;;;;;;27.30;20.93;;;15.20;91.70;;;;;;5033093;28;20177;-80
2022/03/30 07:52:39;;;;;;;22.37;20.03;;;15.50;91.90;;;;;;5042286;28;20608;-79
2022/03/30 07:55:07;;;;;;;24.27;19.37;;;15.90;92.00;;;;;;5044433;28;21017;-81
2022/03/30 07:57:36;;;;;;;23.03;20.57;;;16.40;92.10;;;;;;5053652;28;20575;-79
2022/03/30 08:00:06;;;;;;;20.63;17.73;;;16.90;92.20;;;;;;5053187;28;20642;-78
2022/03/30 08:02:32;;;;;;;20.20;17.83;;;17.30;91.00;;;;;;5052578;28;20579;-79
2022/03/30 08:04:58;;;;;;;23.20;19.43;;;17.50;90.40;;;;;;5052906;28;20587;-78
2022/03/30 08:07:26;;;;;;;22.47;19.13;;;17.60;88.80;;;;;;5053368;28;20564;-78
2022/03/30 08:09:55;;;;;;;22.33;17.37;;;17.60;87.80;;;;;;5052337;28;20582;-78
2022/03/30 08:12:21;;;;;;;22.10;19.00;;;17.80;87.80;;;;;;5042459;28;20589;-78
2022/03/30 08:14:48;;;;;;;24.63;17.40;;;18.00;87.30;;;;;;5032179;28;20643;-78
2022/03/30 08:17:14;;;;;;;19.50;16.37;;;18.30;87.30;;;;;;5032144;28;20585;-78
2022/03/30 08:19:40;;;;;;;21.63;17.47;;;18.60;86.60;;;;;;5031706;28;20624;-77
2022/03/30 08:22:25;;;;;;;23.23;18.13;;;18.90;85.10;;;;;;5052565;28;20594;-77
2022/03/30 08:24:56;;;;;;;20.30;17.30;;;19.20;83.50;;;;;;5050331;28;21164;-78
2022/03/30 08:27:24;;;;;;;21.80;16.77;;;19.70;85.00;;;;;;5039804;28;20592;-78
2022/03/30 08:29:52;;;;;;;20.47;16.23;;;20.30;82.90;;;;;;5014849;28;20573;-79
2022/03/30 08:32:20;;;;;;;18.57;15.70;;;20.90;83.10;;;;;;5031869;28;20596;-80
2022/03/30 08:34:47;;;;;;;18.60;16.67;;;21.50;82.00;;;;;;5031388;28;20627;-80
2022/03/30 08:37:13;;;;;;;18.03;14.23;;;21.90;79.60;;;;;;5033580;28;21155;-80
2022/03/30 08:39:39;;;;;;;18.70;16.70;;;22.30;78.60;;;;;;5030073;28;20642;-79
2022/03/30 08:42:06;;;;;;;17.30;15.50;;;22.80;77.50;;;;;;5030568;28;20638;-80
2022/03/30 08:44:33;;;;;;;18.63;16.23;;;23.40;75.90;;;;;;5030154;28;20627;-79
2022/03/30 08:47:00;;;;;;;19.63;13.90;;;24.00;74.50;;;;;;5030769;28;20646;-79
2022/03/30 08:49:27;;;;;;;18.20;13.67;;;24.50;73.60;;;;;;5030447;28;20612;-79
2022/03/30 08:51:54;;;;;;;13.87;12.47;;;25.10;72.40;;;;;;5031247;28;20648;-80
2022/03/30 08:54:21;;;;;;;16.73;14.93;;;25.60;71.70;;;;;;5029767;28;20684;-80
2022/03/30 08:56:47;;;;;;;16.10;12.87;;;26.10;66.50;;;;;;5030113;28;20630;-79
2022/03/30 08:59:20;;;;;;;14.63;13.07;;;26.50;64.60;;;;;;5031134;28;20635;-80
2022/03/30 09:01:48;;;;;;;17.60;14.67;;;26.80;62.40;;;;;;5030037;28;20592;-80
2022/03/30 09:04:16;;;;;;;14.90;13.33;;;26.80;58.70;;;;;;5031377;28;20572;-80
2022/03/30 09:06:53;;;;;;;15.13;13.60;;;26.70;58.30;;;;;;5033772;28;20627;-79
2022/03/30 09:09:29;;;;;;;15.93;11.90;;;26.50;56.60;;;;;;5031308;28;20634;-79
2022/03/30 09:11:56;;;;;;;15.03;13.37;;;26.40;56.00;;;;;;5031304;28;20584;-79
2022/03/30 09:14:25;;;;;;;15.00;13.40;;;26.30;56.10;;;;;;5029900;28;20624;-80
2022/03/30 09:16:55;;;;;;;14.43;13.00;;;26.20;55.40;;;;;;5031393;28;20630;-80
2022/03/30 09:19:21;;;;;;;15.00;13.50;;;26.30;55.00;;;;;;5031199;28;20623;-80
2022/03/30 09:21:58;;;;;;;14.40;11.97;;;26.40;54.70;;;;;;5041435;28;20618;-79
2022/03/30 09:24:33;;;;;;;13.30;11.17;;;26.60;52.40;;;;;;5050911;28;20606;-79
2022/03/30 09:27:00;;;;;;;12.00;10.47;;;26.80;53.40;;;;;;5050864;28;20566;-79
2022/03/30 09:29:31;;;;;;;15.20;11.77;;;27.20;54.00;;;;;;5050581;28;20563;-79
2022/03/30 09:32:01;;;;;;;14.67;12.20;;;27.50;53.10;;;;;;5050990;28;20663;-77
2022/03/30 09:34:33;;;;;;;12.40;11.30;;;27.70;52.40;;;;;;5035865;28;20671;-77
2022/03/30 09:36:59;;;;;;;11.57;10.37;;;28.00;51.40;;;;;;5030899;28;20576;-77
2022/03/30 09:39:37;;;;;;;12.83;9.57;;;28.20;51.20;;;;;;5030594;28;20628;-80
2022/03/30 09:42:05;;;;;;;11.03;9.93;;;28.60;49.90;;;;;;5031057;28;20626;-78
2022/03/30 09:44:53;;;;;;;10.80;9.70;;;28.90;50.10;;;;;;5034711;28;20611;-80
2022/03/30 09:47:21;;;;;;;14.87;9.93;;;29.20;49.10;;;;;;5030702;28;20569;-80
2022/03/30 09:49:50;;;;;;;12.93;11.50;;;29.30;47.20;;;;;;5030623;28;20623;-80
2022/03/30 09:52:17;;;;;;;9.07;8.10;;;29.50;44.70;;;;;;5030885;28;20561;-79
2022/03/30 09:54:49;;;;;;;10.10;7.67;;;29.50;45.60;;;;;;5030456;28;20659;-80
2022/03/30 09:57:16;;;;;;;10.67;7.60;;;29.60;44.80;;;;;;5031034;28;20611;-80
2022/03/30 10:00:21;;;;;;;10.80;9.00;;;29.80;44.60;;;;;;5034507;28;21120;-79
2022/03/30 10:02:53;;;;;;;10.23;8.43;;;29.80;39.10;;;;;;4954113;29;20686;-80
2022/03/30 10:05:21;;;;;;;12.27;9.07;;;29.80;42.60;;;;;;4954005;29;21285;-80
2022/03/30 10:07:47;;;;;;;14.37;9.77;;;29.80;42.10;;;;;;4995976;28;20596;-78
2022/03/30 10:10:16;;;;;;;10.70;9.60;;;29.90;41.60;;;;;;5034261;28;20618;-80
2022/03/30 10:12:42;;;;;;;9.80;8.13;;;29.90;40.80;;;;;;5034203;28;20573;-79
2022/03/30 10:15:11;;;;;;;13.40;10.67;;;29.90;41.20;;;;;;5034472;28;20628;-79
2022/03/30 10:17:37;;;;;;;10.30;8.63;;;29.90;39.90;;;;;;5033934;28;20584;-77
2022/03/30 10:20:05;;;;;;;11.63;9.47;;;29.80;40.60;;;;;;5027527;28;20689;-78
2022/03/30 10:23:13;;;;;;;10.10;9.17;;;29.70;39.90;;;;;;5041031;28;20580;-77
2022/03/30 10:25:58;;;;;;;10.57;9.47;;;29.70;38.80;;;;;;5033921;28;21420;-79
2022/03/30 10:28:47;;;;;;;10.73;9.60;;;29.50;38.90;;;;;;5035056;28;20576;-77
2022/03/30 10:31:13;;;;;;;11.80;9.20;;;29.00;38.70;;;;;;5040362;28;20584;-77
2022/03/30 10:33:44;;;;;;;10.60;9.50;;;28.40;39.00;;;;;;5038423;28;20580;-78
2022/03/30 10:36:32;;;;;;;11.57;10.37;;;28.20;39.40;;;;;;5035342;28;20186;-78
2022/03/30 10:39:11;;;;;;;11.40;10.20;;;28.00;39.60;;;;;;5035772;28;20689;-78
2022/03/30 10:42:07;;;;;;;11.60;10.40;;;27.70;39.20;;;;;;5033652;28;20649;-76
2022/03/30 10:44:37;;;;;;;12.77;9.90;;;27.40;39.50;;;;;;5034252;28;20699;-80
2022/03/30 10:47:18;;;;;;;11.40;10.30;;;27.20;39.50;;;;;;5034136;28;20591;-79
2022/03/30 10:49:54;;;;;;;10.77;9.67;;;27.10;39.80;;;;;;5034410;28;20603;-79
2022/03/30 10:52:40;;;;;;;11.50;9.47;;;27.00;39.10;;;;;;5034073;28;20560;-80
2022/03/30 10:55:12;;;;;;;10.33;9.17;;;26.80;39.60;;;;;;5033183;28;20631;-79
2022/03/30 10:57:53;;;;;;;14.20;11.23;;;26.80;39.40;;;;;;5037668;28;20731;-77
2022/03/30 11:00:24;;;;;;;11.10;8.53;;;26.60;39.40;;;;;;5033297;28;20599;-77
2022/03/30 11:02:51;;;;;;;12.67;10.33;;;26.60;39.70;;;;;;5033723;28;20571;-81
2022/03/30 11:05:28;;;;;;;12.40;11.10;;;26.50;39.30;;;;;;5034177;28;20687;-80
2022/03/30 11:07:53;;;;;;;11.17;8.53;;;26.40;39.40;;;;;;5033140;28;20726;-79
2022/03/30 11:10:19;;;;;;;10.97;8.67;;;26.40;40.00;;;;;;5032626;28;20664;-80
2022/03/30 11:13:04;;;;;;;12.17;10.10;;;26.40;40.00;;;;;;5031916;28;20592;-79
2022/03/30 11:15:53;;;;;;;10.77;8.93;;;26.30;39.60;;;;;;5033149;28;20967;-79
2022/03/30 11:18:20;;;;;;;16.73;9.80;;;26.40;39.90;;;;;;5032691;28;20640;-80
2022/03/30 11:21:19;;;;;;;8.50;7.80;;;26.30;39.00;;;;;;5035039;28;21199;-80
2022/03/30 11:24:11;;;;;;;11.07;8.93;;;26.10;39.10;;;;;;5051981;28;20571;-80
2022/03/30 11:26:49;;;;;;;12.40;9.70;;;26.10;39.30;;;;;;5054073;28;20574;-79
2022/03/30 11:29:39;;;;;;;15.87;9.83;;;25.90;38.70;;;;;;5054082;28;20585;-80
2022/03/30 11:32:23;;;;;;;10.63;8.07;;;25.80;39.20;;;;;;5053732;28;20935;-78
2022/03/30 11:34:58;;;;;;;9.90;8.90;;;25.80;39.40;;;;;;5058642;28;20607;-79
2022/03/30 11:37:31;;;;;;;8.67;7.53;;;25.80;39.00;;;;;;5043203;28;20567;-79
2022/03/30 11:40:03;;;;;;;11.73;9.57;;;25.70;39.60;;;;;;5030673;28;20640;-78
2022/03/30 11:42:29;;;;;;;10.00;9.00;;;25.70;39.10;;;;;;5031362;28;20663;-78
2022/03/30 11:45:13;;;;;;;12.07;9.87;;;25.60;39.20;;;;;;5032615;28;20619;-78
2022/03/30 11:47:47;;;;;;;12.77;8.67;;;25.50;39.20;;;;;;5032197;28;20610;-78
2022/03/30 11:50:15;;;;;;;9.90;8.80;;;25.40;39.30;;;;;;5032556;28;20600;-79
2022/03/30 11:52:42;;;;;;;14.53;9.07;;;25.40;39.50;;;;;;5031761;28;20572;-78
2022/03/30 11:55:09;;;;;;;11.17;9.10;;;25.30;39.50;;;;;;5008710;28;20625;-78
2022/03/30 11:57:43;;;;;;;9.20;8.30;;;25.30;39.40;;;;;;5012402;28;20588;-78
2022/03/30 12:00:11;;;;;;;11.83;8.47;;;25.10;39.10;;;;;;5032143;28;20650;-78
2022/03/30 12:02:43;;;;;;;11.57;9.83;;;25.00;39.00;;;;;;5032476;28;20952;-78
2022/03/30 12:05:10;;;;;;;13.30;10.27;;;24.80;38.80;;;;;;5031136;28;20604;-79
2022/03/30 12:07:38;;;;;;;15.70;10.60;;;24.50;38.60;;;;;;5031746;28;20580;-79
2022/03/30 12:10:08;;;;;;;9.20;8.17;;;24.30;38.50;;;;;;5032002;28;20583;-78
2022/03/30 12:12:39;;;;;;;12.40;7.87;;;24.10;38.90;;;;;;5036504;28;20593;-78
2022/03/30 12:15:17;;;;;;;9.93;8.50;;;23.90;39.00;;;;;;5029544;28;20678;-78
2022/03/30 12:17:50;;;;;;;10.93;8.50;;;23.70;38.70;;;;;;5031601;28;20949;-79
2022/03/30 12:20:33;;;;;;;11.17;10.00;;;23.60;39.00;;;;;;5031664;28;20568;-78
2022/03/30 12:23:02;;;;;;;9.93;9.00;;;23.40;39.10;;;;;;5051717;28;20559;-79
2022/03/30 12:25:32;;;;;;;10.13;8.50;;;23.30;39.30;;;;;;5051487;28;20681;-78
2022/03/30 12:27:58;;;;;;;10.80;9.10;;;23.20;39.30;;;;;;5051574;28;20571;-78
2022/03/30 12:30:26;;;;;;;7.57;6.70;;;23.00;39.40;;;;;;5051506;28;21178;-77
2022/03/30 12:32:52;;;;;;;10.37;8.83;;;23.00;39.70;;;;;;5050702;28;20577;-77
2022/03/30 12:35:20;;;;;;;10.03;8.50;;;22.80;39.40;;;;;;5050439;28;20611;-79
2022/03/30 12:38:02;;;;;;;8.33;7.30;;;22.70;39.60;;;;;;5019338;28;20606;-78
2022/03/30 12:40:36;;;;;;;10.73;8.37;;;22.70;39.70;;;;;;5031876;28;20599;-79